createdAt,value
2017-10-11T00:02:12.767Z,3.03
2017-10-11T00:04:41.658Z,3.07
2017-10-11T00:07:10.453Z,3.20
2017-10-11T00:09:39.211Z,3.20
2017-10-11T00:12:07.726Z,3.00
2017-10-11T00:14:36.627Z,3.00
2017-10-11T00:17:05.531Z,3.13
2017-10-11T00:19:34.319Z,3.30
2017-10-11T00:22:03.316Z,2.87
2017-10-11T00:24:32.590Z,2.53
2017-10-11T00:27:01.419Z,3.10
2017-10-11T00:29:30.027Z,3.33
2017-10-11T00:31:58.864Z,3.10
2017-10-11T00:34:27.543Z,3.07
2017-10-11T00:36:56.413Z,3.20
2017-10-11T00:39:25.069Z,3.00
2017-10-11T00:41:53.602Z,3.20
2017-10-11T00:44:22.575Z,3.60
2017-10-11T00:46:51.425Z,3.07
2017-10-11T00:49:20.428Z,3.03
2017-10-11T00:51:49.150Z,2.50
2017-10-11T00:54:17.794Z,3.43
2017-10-11T00:56:46.322Z,3.10
2017-10-11T00:59:14.963Z,2.60
2017-10-11T01:01:43.894Z,2.90
2017-10-11T01:04:12.791Z,3.37
2017-10-11T01:06:41.233Z,2.60
2017-10-11T01:09:09.898Z,3.20
2017-10-11T01:11:38.543Z,2.63
2017-10-11T01:14:07.488Z,2.90
2017-10-11T01:16:36.239Z,2.93
2017-10-11T01:19:04.890Z,3.27
2017-10-11T01:21:33.510Z,3.03
2017-10-11T01:24:02.625Z,3.10
2017-10-11T01:26:31.226Z,3.57
2017-10-11T01:29:00.019Z,3.20
2017-10-11T01:31:28.555Z,3.30
2017-10-11T01:33:57.389Z,2.97
2017-10-11T01:36:26.331Z,2.70
2017-10-11T01:38:55.174Z,2.87
2017-10-11T01:41:23.836Z,2.70
2017-10-11T01:43:52.491Z,3.10
2017-10-11T01:46:21.257Z,3.20
2017-10-11T01:48:49.926Z,3.27
2017-10-11T01:51:18.475Z,3.00
2017-10-11T01:53:47.576Z,3.13
2017-10-11T01:56:16.645Z,2.70
2017-10-11T01:58:46.743Z,2.77
2017-10-11T02:01:15.615Z,3.10
2017-10-11T02:03:44.327Z,2.90
2017-10-11T02:06:13.275Z,2.70
2017-10-11T02:08:42.204Z,2.63
2017-10-11T02:11:11.019Z,2.63
2017-10-11T02:13:39.818Z,2.70
2017-10-11T02:16:08.538Z,3.20
2017-10-11T02:18:36.997Z,3.03
2017-10-11T02:21:05.548Z,2.80
2017-10-11T02:23:34.268Z,2.87
2017-10-11T02:26:03.223Z,2.70
2017-10-11T02:28:32.024Z,2.80
2017-10-11T02:31:00.708Z,2.90
2017-10-11T02:33:29.339Z,2.60
2017-10-11T02:35:58.238Z,2.67
2017-10-11T02:38:27.022Z,3.00
2017-10-11T02:40:55.718Z,2.37
2017-10-11T02:43:24.351Z,2.50
2017-10-11T02:45:53.189Z,2.93
2017-10-11T02:48:22.054Z,2.73
2017-10-11T02:50:50.935Z,2.53
2017-10-11T02:53:19.811Z,2.47
2017-10-11T02:55:48.458Z,2.60
2017-10-11T02:58:17.209Z,2.50
2017-10-11T03:00:45.921Z,2.90
2017-10-11T03:03:14.763Z,2.60
2017-10-11T03:05:43.310Z,2.80
2017-10-11T03:08:12.334Z,2.80
2017-10-11T03:10:40.883Z,2.87
2017-10-11T03:13:09.750Z,2.80
2017-10-11T03:15:38.940Z,2.70
2017-10-11T03:18:07.498Z,2.70
2017-10-11T03:20:36.034Z,2.30
2017-10-11T03:23:05.678Z,3.03
2017-10-11T03:25:34.441Z,2.70
2017-10-11T03:28:03.472Z,2.53
2017-10-11T03:30:32.085Z,2.70
2017-10-11T03:33:01.059Z,2.60
2017-10-11T03:35:29.562Z,2.83
2017-10-11T03:37:58.400Z,2.90
2017-10-11T03:40:27.138Z,2.73
2017-10-11T03:42:56.211Z,2.70
2017-10-11T03:45:24.750Z,2.53
2017-10-11T03:47:53.524Z,2.80
2017-10-11T03:50:22.094Z,2.20
2017-10-11T03:52:50.965Z,2.80
2017-10-11T03:55:19.552Z,2.27
2017-10-11T03:57:48.555Z,2.60
2017-10-11T04:03:19.307Z,2.57
2017-10-11T04:05:48.171Z,3.10
2017-10-11T04:08:16.626Z,2.23
2017-10-11T04:10:45.239Z,2.67
2017-10-11T04:13:14.118Z,2.97
2017-10-11T04:15:42.812Z,2.70
2017-10-11T04:18:11.755Z,2.60
2017-10-11T04:20:40.330Z,2.40
2017-10-11T04:23:08.959Z,2.30
2017-10-11T04:25:37.727Z,2.60
2017-10-11T04:28:06.587Z,2.90
2017-10-11T04:30:35.914Z,2.23
2017-10-11T04:33:04.542Z,3.13
2017-10-11T04:35:33.266Z,2.67
2017-10-11T04:38:02.139Z,2.57
2017-10-11T04:40:31.055Z,2.40
2017-10-11T04:42:59.743Z,2.30
2017-10-11T04:45:28.608Z,2.30
2017-10-11T04:47:57.276Z,2.20
2017-10-11T04:50:26.163Z,2.50
2017-10-11T04:52:54.740Z,2.50
2017-10-11T04:55:23.516Z,2.70
2017-10-11T04:57:52.024Z,2.70
2017-10-11T05:00:22.767Z,2.60
2017-10-11T05:02:51.549Z,2.77
2017-10-11T05:05:20.590Z,2.47
2017-10-11T05:07:49.231Z,2.40
2017-10-11T05:10:17.726Z,2.43
2017-10-11T05:12:46.555Z,2.20
2017-10-11T05:15:15.359Z,2.50
2017-10-11T05:17:44.130Z,2.67
2017-10-11T05:20:12.739Z,2.80
2017-10-11T05:22:41.326Z,2.77
2017-10-11T05:25:10.634Z,3.00
2017-10-11T05:27:39.942Z,2.50
2017-10-11T05:30:08.508Z,2.87
2017-10-11T05:32:37.164Z,2.73
2017-10-11T05:35:06.042Z,2.77
2017-10-11T05:37:34.670Z,2.90
2017-10-11T05:40:03.374Z,2.60
2017-10-11T05:42:32.122Z,2.40
2017-10-11T05:45:00.779Z,2.90
2017-10-11T05:47:29.687Z,3.03
2017-10-11T05:49:58.493Z,3.30
2017-10-11T05:52:27.065Z,3.20
2017-10-11T05:54:55.654Z,3.20
2017-10-11T05:57:24.213Z,3.10
2017-10-11T05:59:53.067Z,3.70
2017-10-11T06:02:22.372Z,3.37
2017-10-11T06:04:51.210Z,3.40
2017-10-11T06:07:19.961Z,3.70
2017-10-11T06:09:48.618Z,3.60
2017-10-11T06:12:17.510Z,3.47
2017-10-11T06:14:46.239Z,4.90
2017-10-11T06:17:15.312Z,5.20
2017-10-11T06:19:44.398Z,4.20
2017-10-11T06:22:13.363Z,4.07
2017-10-11T06:24:41.926Z,4.50
2017-10-11T06:27:10.518Z,5.13
2017-10-11T06:29:39.521Z,4.80
2017-10-11T06:32:08.263Z,5.03
2017-10-11T06:34:37.212Z,4.90
2017-10-11T06:37:05.834Z,4.17
2017-10-11T06:39:34.691Z,5.33
2017-10-11T06:42:03.465Z,5.10
2017-10-11T06:44:32.447Z,5.10
2017-10-11T06:47:01.387Z,5.17
2017-10-11T06:49:32.193Z,5.30
2017-10-11T06:52:00.888Z,4.33
2017-10-11T06:54:30.000Z,5.10
2017-10-11T06:56:59.005Z,4.87
2017-10-11T06:59:28.148Z,4.97
2017-10-11T07:01:56.804Z,4.53
2017-10-11T07:04:26.240Z,5.87
2017-10-11T07:06:54.943Z,5.40
2017-10-11T07:09:23.619Z,5.00
2017-10-11T07:11:52.578Z,5.00
2017-10-11T07:14:21.423Z,5.20
2017-10-11T07:16:50.342Z,5.50
2017-10-11T07:19:19.059Z,5.57
2017-10-11T07:21:47.620Z,5.67
2017-10-11T07:24:17.126Z,5.43
2017-10-11T07:26:45.618Z,5.30
2017-10-11T07:29:14.335Z,5.17
2017-10-11T07:31:44.089Z,4.90
2017-10-11T07:34:12.623Z,5.40
2017-10-11T07:36:41.651Z,5.10
2017-10-11T07:39:10.471Z,4.70
2017-10-11T07:41:39.130Z,5.27
2017-10-11T07:44:07.979Z,5.50
2017-10-11T07:46:36.917Z,5.20
2017-10-11T07:49:05.800Z,4.97
2017-10-11T07:51:34.870Z,4.93
2017-10-11T07:54:04.046Z,4.50
2017-10-11T07:56:32.703Z,4.83
2017-10-11T07:59:02.654Z,5.13
2017-10-11T08:01:31.544Z,4.80
2017-10-11T08:04:00.590Z,4.90
2017-10-11T08:06:29.681Z,4.63
2017-10-11T08:08:58.743Z,4.40
2017-10-11T08:11:28.144Z,5.03
2017-10-11T08:13:56.782Z,5.23
2017-10-11T08:16:25.435Z,5.13
2017-10-11T08:18:54.087Z,5.10
2017-10-11T08:21:22.760Z,4.67
2017-10-11T08:23:51.283Z,4.20
2017-10-11T08:26:20.051Z,4.50
2017-10-11T08:28:48.828Z,4.57
2017-10-11T08:31:18.035Z,4.37
2017-10-11T08:33:47.075Z,4.70
2017-10-11T08:36:16.621Z,3.83
2017-10-11T08:38:45.807Z,4.70
2017-10-11T08:41:14.952Z,4.57
2017-10-11T08:43:43.884Z,4.30
2017-10-11T08:46:12.926Z,4.77
2017-10-11T08:48:42.015Z,4.00
2017-10-11T08:51:11.192Z,4.47
2017-10-11T08:53:46.603Z,4.40
2017-10-11T08:56:15.946Z,4.70
2017-10-11T08:58:44.648Z,4.50
2017-10-11T09:01:13.819Z,4.20
2017-10-11T09:03:42.442Z,4.23
2017-10-11T09:06:11.414Z,4.43
2017-10-11T09:08:40.434Z,4.20
2017-10-11T09:11:09.215Z,4.30
2017-10-11T09:13:37.907Z,5.00
2017-10-11T09:16:06.774Z,4.40
2017-10-11T09:18:35.674Z,4.47
2017-10-11T09:21:04.424Z,4.70
2017-10-11T09:23:33.289Z,4.23
2017-10-11T09:26:02.130Z,4.50
2017-10-11T09:28:30.903Z,5.27
2017-10-11T09:31:00.989Z,4.57
2017-10-11T09:33:36.975Z,4.30
2017-10-11T09:36:09.162Z,5.23
2017-10-11T09:38:42.005Z,4.70
2017-10-11T09:41:13.524Z,4.50
2017-10-11T09:43:44.509Z,4.27
2017-10-11T09:46:13.985Z,4.53
2017-10-11T09:48:43.742Z,4.60
2017-10-11T09:51:12.795Z,4.33
2017-10-11T09:53:41.890Z,3.77
2017-10-11T09:56:11.001Z,4.47
2017-10-11T09:58:40.120Z,4.30
2017-10-11T10:01:11.039Z,4.23
2017-10-11T10:03:40.325Z,4.00
2017-10-11T10:06:11.511Z,4.47
2017-10-11T10:08:40.594Z,4.63
2017-10-11T10:11:09.434Z,4.53
2017-10-11T10:13:38.116Z,3.70
2017-10-11T10:16:06.832Z,4.57
2017-10-11T10:18:35.858Z,4.53
2017-10-11T10:21:05.212Z,3.83
2017-10-11T10:23:34.385Z,4.10
2017-10-11T10:26:03.234Z,3.90
2017-10-11T10:28:32.652Z,4.10
2017-10-11T10:31:01.338Z,3.97
2017-10-11T10:33:30.296Z,3.50
2017-10-11T10:35:59.023Z,4.30
2017-10-11T10:38:28.633Z,4.10
2017-10-11T10:40:58.763Z,3.90
2017-10-11T10:43:27.927Z,3.80
2017-10-11T10:45:58.512Z,3.40
2017-10-11T10:48:27.754Z,3.37
2017-10-11T10:50:56.554Z,4.07
2017-10-11T10:53:25.443Z,3.63
2017-10-11T10:55:54.091Z,3.43
2017-10-11T10:58:22.585Z,4.20
2017-10-11T11:00:51.126Z,3.40
2017-10-11T11:03:19.854Z,3.80
2017-10-11T11:05:48.535Z,3.73
2017-10-11T11:08:17.440Z,3.60
2017-10-11T11:10:46.142Z,4.07
2017-10-11T11:13:14.923Z,3.53
2017-10-11T11:15:43.831Z,3.63
2017-10-11T11:18:13.295Z,4.07
2017-10-11T11:20:42.919Z,3.90
2017-10-11T11:23:12.459Z,3.77
2017-10-11T11:25:41.791Z,3.77
2017-10-11T11:28:11.270Z,3.50
2017-10-11T11:30:40.015Z,3.93
2017-10-11T11:33:08.659Z,3.93
2017-10-11T11:35:37.807Z,3.80
2017-10-11T11:38:06.539Z,4.90
2017-10-11T11:40:35.531Z,4.30
2017-10-11T11:43:04.359Z,4.10
2017-10-11T11:45:33.102Z,4.20
2017-10-11T11:48:01.930Z,3.60
2017-10-11T11:50:31.404Z,3.90
2017-10-11T11:53:00.335Z,4.43
2017-10-11T11:55:30.497Z,3.90
2017-10-11T11:57:59.119Z,4.00
2017-10-11T12:00:27.752Z,3.70
2017-10-11T12:02:56.491Z,4.03
2017-10-11T12:05:25.454Z,4.37
2017-10-11T12:07:54.266Z,4.23
2017-10-11T12:10:24.486Z,3.70
2017-10-11T12:12:54.272Z,4.07
2017-10-11T12:15:22.781Z,4.63
2017-10-11T12:17:51.734Z,4.30
2017-10-11T12:20:20.452Z,5.00
2017-10-11T12:22:49.493Z,3.93
2017-10-11T12:25:18.203Z,3.73
2017-10-11T12:27:47.047Z,4.23
2017-10-11T12:30:15.634Z,4.20
2017-10-11T12:32:44.474Z,4.27
2017-10-11T12:35:13.387Z,4.80
2017-10-11T12:37:42.179Z,4.10
2017-10-11T12:40:10.906Z,4.17
2017-10-11T12:42:44.362Z,5.10
2017-10-11T12:45:13.723Z,4.43
2017-10-11T12:47:42.577Z,4.50
2017-10-11T12:50:11.502Z,4.50
2017-10-11T12:52:40.385Z,4.60
2017-10-11T12:55:08.983Z,4.67
2017-10-11T12:57:37.774Z,4.50
2017-10-11T13:00:06.718Z,4.37
2017-10-11T13:02:36.381Z,4.23
2017-10-11T13:05:05.342Z,3.77
2017-10-11T13:07:33.979Z,4.43
2017-10-11T13:10:03.895Z,4.60
2017-10-11T13:12:33.054Z,4.37
2017-10-11T13:15:01.728Z,4.30
2017-10-11T13:17:31.273Z,4.60
2017-10-11T13:19:59.776Z,4.60
2017-10-11T13:22:28.502Z,4.63
2017-10-11T13:24:57.459Z,4.80
2017-10-11T13:27:26.290Z,5.37
2017-10-11T13:29:55.343Z,5.60
2017-10-11T13:32:23.899Z,5.60
2017-10-11T13:34:52.543Z,5.17
2017-10-11T13:37:21.199Z,5.90
2017-10-11T13:39:50.944Z,5.50
2017-10-11T13:42:20.627Z,5.33
2017-10-11T13:44:49.261Z,5.80
2017-10-11T13:47:19.883Z,6.00
2017-10-11T13:49:49.595Z,6.63
2017-10-11T13:52:18.338Z,5.97
2017-10-11T13:54:47.169Z,5.30
2017-10-11T13:57:15.879Z,5.37
2017-10-11T13:59:44.697Z,6.23
2017-10-11T14:02:13.288Z,7.33
2017-10-11T14:04:46.964Z,6.70
2017-10-11T14:07:15.980Z,5.50
2017-10-11T14:09:44.779Z,5.97
2017-10-11T14:12:13.766Z,6.67
2017-10-11T14:14:42.622Z,6.60
2017-10-11T14:17:11.418Z,6.20
2017-10-11T14:19:40.080Z,5.73
2017-10-11T14:22:08.835Z,5.60
2017-10-11T14:24:37.454Z,5.67
2017-10-11T14:27:07.701Z,5.63
2017-10-11T14:29:36.490Z,5.53
2017-10-11T14:32:06.278Z,5.20
2017-10-11T14:34:35.486Z,6.27
2017-10-11T14:37:04.718Z,6.03
2017-10-11T14:39:34.280Z,5.77
2017-10-11T14:42:03.422Z,4.90
2017-10-11T14:44:33.271Z,5.10
2017-10-11T14:47:02.182Z,5.50
2017-10-11T14:49:30.910Z,5.07
2017-10-11T14:51:59.687Z,5.17
2017-10-11T14:54:28.274Z,5.37
2017-10-11T14:56:56.967Z,5.60
2017-10-11T14:59:25.656Z,5.20
2017-10-11T15:01:55.070Z,6.23
2017-10-11T15:04:23.967Z,6.07
2017-10-11T15:06:52.958Z,4.43
2017-10-11T15:09:21.744Z,5.07
2017-10-11T15:11:50.543Z,5.27
2017-10-11T15:14:20.432Z,5.03
2017-10-11T15:16:49.006Z,5.70
2017-10-11T15:19:17.942Z,4.90
2017-10-11T15:21:47.075Z,4.60
2017-10-11T15:24:16.380Z,5.10
2017-10-11T15:26:45.015Z,5.17
2017-10-11T15:29:14.584Z,4.97
2017-10-11T15:31:44.185Z,4.50
2017-10-11T15:34:12.682Z,4.83
2017-10-11T15:36:42.373Z,4.20
2017-10-11T15:39:10.957Z,4.67
2017-10-11T15:41:40.542Z,4.40
2017-10-11T15:44:09.042Z,4.40
2017-10-11T15:46:37.779Z,4.33
2017-10-11T15:49:06.510Z,4.97
2017-10-11T15:51:35.618Z,5.27
2017-10-11T15:54:04.655Z,4.53
2017-10-11T15:56:33.810Z,4.40
2017-10-11T15:59:02.646Z,4.50
2017-10-11T16:01:32.068Z,4.87
2017-10-11T16:04:00.552Z,4.40
2017-10-11T16:06:29.292Z,4.30
2017-10-11T16:08:58.482Z,4.20
2017-10-11T16:11:27.546Z,4.00
2017-10-11T16:13:56.455Z,4.23
2017-10-11T16:16:25.256Z,3.90
2017-10-11T16:18:54.863Z,4.00
2017-10-11T16:21:23.667Z,4.47
2017-10-11T16:23:52.735Z,3.70
2017-10-11T16:26:23.041Z,3.97
2017-10-11T16:28:52.021Z,4.10
2017-10-11T16:31:20.500Z,3.97
2017-10-11T16:33:49.527Z,3.80
2017-10-11T16:36:18.268Z,4.13
2017-10-11T16:38:47.171Z,4.20
2017-10-11T16:41:16.238Z,4.33
2017-10-11T16:43:44.714Z,4.63
2017-10-11T16:46:13.711Z,4.20
2017-10-11T16:48:42.499Z,5.30
2017-10-11T16:51:12.479Z,4.40
2017-10-11T16:53:41.784Z,4.77
2017-10-11T16:56:11.137Z,4.70
2017-10-11T16:58:40.169Z,4.70
2017-10-11T17:01:09.124Z,4.43
2017-10-11T17:03:38.880Z,4.30
2017-10-11T17:06:07.807Z,3.70
2017-10-11T17:08:37.324Z,4.20
2017-10-11T17:11:07.170Z,4.00
2017-10-11T17:13:35.695Z,3.60
2017-10-11T17:16:05.458Z,3.80
2017-10-11T17:18:35.294Z,3.90
2017-10-11T17:21:04.317Z,4.30
2017-10-11T17:23:33.076Z,3.73
2017-10-11T17:26:02.322Z,3.90
2017-10-11T17:28:30.939Z,4.53
2017-10-11T17:31:00.992Z,4.13
2017-10-11T17:33:30.307Z,4.63
2017-10-11T17:36:01.021Z,4.43
2017-10-11T17:38:30.580Z,4.00
2017-10-11T17:41:00.039Z,4.70
2017-10-11T17:43:30.430Z,4.90
2017-10-11T17:46:01.181Z,4.20
2017-10-11T17:48:31.241Z,4.23
2017-10-11T17:51:01.960Z,4.17
2017-10-11T17:53:31.505Z,4.10
2017-10-11T17:56:01.830Z,3.70
2017-10-11T17:58:32.141Z,3.87
2017-10-11T18:01:03.153Z,4.00
2017-10-11T18:03:32.864Z,4.40
2017-10-11T18:06:01.788Z,4.17
2017-10-11T18:08:33.628Z,3.90
2017-10-11T18:11:05.193Z,3.87
2017-10-11T18:13:35.311Z,3.70
2017-10-11T18:16:04.957Z,4.07
2017-10-11T18:18:36.968Z,4.30
2017-10-11T18:21:07.551Z,3.60
2017-10-11T18:23:37.589Z,3.80
2017-10-11T18:26:08.316Z,3.43
2017-10-11T18:28:38.972Z,4.20
2017-10-11T18:31:09.887Z,3.70
2017-10-11T18:33:40.435Z,3.77
2017-10-11T18:36:11.061Z,3.70
2017-10-11T18:38:39.871Z,4.10
2017-10-11T18:41:10.999Z,3.07
2017-10-11T18:43:44.428Z,3.67
2017-10-11T18:46:15.841Z,3.30
2017-10-11T18:48:46.268Z,3.30
2017-10-11T18:51:29.422Z,3.80
2017-10-11T18:54:05.318Z,3.20
2017-10-11T18:56:49.267Z,3.40
2017-10-11T18:59:24.889Z,3.40
2017-10-11T19:01:59.545Z,3.60
2017-10-11T19:04:34.258Z,3.60
2017-10-11T19:07:08.528Z,3.80
2017-10-11T19:09:39.280Z,3.00
2017-10-11T19:12:08.829Z,3.33
2017-10-11T19:14:38.509Z,2.97
2017-10-11T19:17:08.962Z,3.17
2017-10-11T19:19:39.553Z,3.10
2017-10-11T19:22:09.350Z,2.87
2017-10-11T19:24:40.694Z,3.20
2017-10-11T19:27:12.681Z,3.33
2017-10-11T19:29:43.496Z,2.80
2017-10-11T19:32:14.169Z,2.90
2017-10-11T19:34:45.318Z,3.20
2017-10-11T19:37:14.247Z,3.43
2017-10-11T19:39:46.035Z,3.20
2017-10-11T19:42:18.390Z,2.90
2017-10-11T19:44:48.236Z,3.37
2017-10-11T19:47:18.911Z,2.43
2017-10-11T19:49:49.736Z,2.90
2017-10-11T19:52:18.819Z,2.83
2017-10-11T19:54:48.434Z,3.27
2017-10-11T19:57:19.139Z,3.00
2017-10-11T19:59:47.951Z,3.67
2017-10-11T20:02:17.913Z,3.10
2017-10-11T20:04:48.063Z,3.20
2017-10-11T20:07:17.047Z,2.87
2017-10-11T20:09:46.285Z,3.20
2017-10-11T20:12:16.928Z,2.93
2017-10-11T20:14:46.785Z,3.27
2017-10-11T20:17:16.321Z,3.00
2017-10-11T20:19:47.089Z,2.80
2017-10-11T20:22:16.264Z,2.87
2017-10-11T20:24:45.633Z,2.90
2017-10-11T20:27:14.785Z,2.40
2017-10-11T20:29:44.571Z,2.87
2017-10-11T20:32:13.259Z,2.80
2017-10-11T20:34:42.845Z,2.70
2017-10-11T20:37:11.808Z,2.53
2017-10-11T20:39:40.559Z,2.90
2017-10-11T20:42:09.620Z,2.70
2017-10-11T20:44:39.327Z,1.97
2017-10-11T20:47:08.163Z,2.73
2017-10-11T20:49:37.230Z,2.73
2017-10-11T20:52:06.200Z,3.00
2017-10-11T20:54:34.991Z,3.00
2017-10-11T20:57:03.934Z,2.50
2017-10-11T20:59:33.174Z,3.23
2017-10-11T21:02:01.694Z,3.10
2017-10-11T21:04:31.093Z,3.00
2017-10-11T21:07:00.055Z,3.33
2017-10-11T21:09:28.667Z,3.80
2017-10-11T21:11:58.642Z,3.60
2017-10-11T21:14:27.386Z,2.80
2017-10-11T21:16:56.135Z,3.20
2017-10-11T21:19:25.418Z,3.20
2017-10-11T21:21:54.068Z,3.63
2017-10-11T21:24:23.650Z,2.93
2017-10-11T21:26:52.378Z,3.50
2017-10-11T21:29:24.816Z,3.40
2017-10-11T21:31:53.791Z,2.97
2017-10-11T21:34:23.510Z,2.87
2017-10-11T21:36:52.006Z,2.93
2017-10-11T21:39:20.886Z,3.33
2017-10-11T21:41:49.633Z,2.70
2017-10-11T21:44:21.879Z,3.20
2017-10-11T21:46:50.847Z,2.80
2017-10-11T21:49:19.516Z,2.93
2017-10-11T21:51:49.270Z,2.73
2017-10-11T21:54:18.048Z,3.10
2017-10-11T21:56:46.855Z,2.63
2017-10-11T21:59:15.551Z,3.50
2017-10-11T22:01:44.823Z,3.27
2017-10-11T22:04:13.512Z,2.83
2017-10-11T22:06:42.252Z,2.43
2017-10-11T22:09:11.089Z,2.93
2017-10-11T22:11:39.867Z,2.70
2017-10-11T22:14:08.452Z,2.80
2017-10-11T22:16:37.811Z,2.77
2017-10-11T22:19:06.286Z,2.30
2017-10-11T22:21:35.518Z,2.50
2017-10-11T22:24:04.002Z,2.80
2017-10-11T22:26:33.267Z,2.50
2017-10-11T22:29:03.370Z,2.50
2017-10-11T22:31:32.316Z,2.30
2017-10-11T22:34:01.663Z,2.40
2017-10-11T22:36:30.126Z,2.90
2017-10-11T22:38:58.991Z,2.77
2017-10-11T22:41:29.019Z,2.60
2017-10-11T22:43:57.598Z,2.60
2017-10-11T22:46:26.468Z,2.50
2017-10-11T22:48:55.287Z,2.10
2017-10-11T22:51:24.070Z,2.40
2017-10-11T22:53:52.731Z,2.40
2017-10-11T22:56:22.115Z,2.30
2017-10-11T22:58:51.200Z,2.30
2017-10-11T23:01:19.915Z,2.10
2017-10-11T23:03:49.008Z,2.47
2017-10-11T23:06:17.503Z,2.27
2017-10-11T23:08:46.169Z,2.67
2017-10-11T23:11:14.771Z,2.40
2017-10-11T23:13:43.326Z,2.67
2017-10-11T23:16:11.901Z,2.67
2017-10-11T23:18:40.903Z,2.20
2017-10-11T23:21:09.445Z,2.10
2017-10-11T23:23:38.272Z,2.23
2017-10-11T23:26:06.790Z,2.70
2017-10-11T23:28:35.659Z,2.50
2017-10-11T23:31:04.178Z,2.50
2017-10-11T23:33:33.027Z,2.30
2017-10-11T23:36:01.526Z,2.30
2017-10-11T23:38:30.586Z,2.20
2017-10-11T23:40:59.297Z,2.10
2017-10-11T23:43:27.987Z,2.13
2017-10-11T23:45:56.691Z,2.40
2017-10-11T23:48:25.352Z,1.97
2017-10-11T23:50:53.873Z,2.20
2017-10-11T23:53:22.499Z,2.10
2017-10-11T23:55:51.016Z,2.37
2017-10-11T23:58:19.870Z,2.07
